sensor_id;sensor_type;location;lat;lon;timestamp;P1;durP1;ratioP1;P2;durP2;ratioP2
35110;SDS011;21290;50.158;8.658;2023-11-21T00:01:07;10.52;;;4.80;;
35110;SDS011;21290;50.158;8.658;2023-11-21T00:03:35;13.48;;;4.40;;
35110;SDS011;21290;50.158;8.658;2023-11-21T00:06:02;14.68;;;5.55;;
35110;SDS011;21290;50.158;8.658;2023-11-21T00:08:29;12.70;;;4.15;;
35110;SDS011;21290;50.158;8.658;2023-11-21T00:10:56;12.88;;;5.13;;
35110;SDS011;21290;50.158;8.658;2023-11-21T00:13:23;11.35;;;4.55;;
35110;SDS011;21290;50.158;8.658;2023-11-21T00:15:50;7.55;;;4.30;;
35110;SDS011;21290;50.158;8.658;2023-11-21T00:18:17;11.40;;;4.60;;
35110;SDS011;21290;50.158;8.658;2023-11-21T00:20:43;13.68;;;5.38;;
35110;SDS011;21290;50.158;8.658;2023-11-21T00:23:10;13.50;;;4.68;;
35110;SDS011;21290;50.158;8.658;2023-11-21T00:25:37;13.48;;;5.10;;
35110;SDS011;21290;50.158;8.658;2023-11-21T00:28:03;8.43;;;4.30;;
35110;SDS011;21290;50.158;8.658;2023-11-21T00:30:32;13.23;;;4.33;;
35110;SDS011;21290;50.158;8.658;2023-11-21T00:32:59;10.10;;;4.53;;
35110;SDS011;21290;50.158;8.658;2023-11-21T00:35:26;10.18;;;4.60;;
35110;SDS011;21290;50.158;8.658;2023-11-21T00:37:53;10.88;;;4.50;;
35110;SDS011;21290;50.158;8.658;2023-11-21T00:40:19;12.10;;;4.40;;
35110;SDS011;21290;50.158;8.658;2023-11-21T00:42:47;11.68;;;4.22;;
35110;SDS011;21290;50.158;8.658;2023-11-21T00:45:14;14.27;;;4.60;;
35110;SDS011;21290;50.158;8.658;2023-11-21T00:47:40;8.48;;;4.03;;
35110;SDS011;21290;50.158;8.658;2023-11-21T00:50:08;9.73;;;4.07;;
35110;SDS011;21290;50.158;8.658;2023-11-21T00:52:36;10.98;;;4.55;;
35110;SDS011;21290;50.158;8.658;2023-11-21T00:55:03;7.40;;;3.88;;
35110;SDS011;21290;50.158;8.658;2023-11-21T00:57:30;7.95;;;4.28;;
35110;SDS011;21290;50.158;8.658;2023-11-21T00:59:57;9.73;;;4.00;;
35110;SDS011;21290;50.158;8.658;2023-11-21T01:02:24;7.13;;;3.72;;
35110;SDS011;21290;50.158;8.658;2023-11-21T01:04:52;7.35;;;4.07;;
35110;SDS011;21290;50.158;8.658;2023-11-21T01:07:18;10.85;;;4.47;;
35110;SDS011;21290;50.158;8.658;2023-11-21T01:09:46;15.55;;;5.00;;
35110;SDS011;21290;50.158;8.658;2023-11-21T01:12:13;13.50;;;5.15;;
35110;SDS011;21290;50.158;8.658;2023-11-21T01:14:40;13.98;;;5.00;;
35110;SDS011;21290;50.158;8.658;2023-11-21T01:17:06;9.45;;;4.38;;
35110;SDS011;21290;50.158;8.658;2023-11-21T01:19:33;13.05;;;4.93;;
35110;SDS011;21290;50.158;8.658;2023-11-21T01:22:00;11.82;;;5.00;;
35110;SDS011;21290;50.158;8.658;2023-11-21T01:24:27;10.73;;;4.32;;
35110;SDS011;21290;50.158;8.658;2023-11-21T01:26:53;12.85;;;4.53;;
35110;SDS011;21290;50.158;8.658;2023-11-21T01:29:20;12.88;;;4.30;;
35110;SDS011;21290;50.158;8.658;2023-11-21T01:31:47;11.68;;;5.90;;
35110;SDS011;21290;50.158;8.658;2023-11-21T01:34:14;8.77;;;4.75;;
35110;SDS011;21290;50.158;8.658;2023-11-21T01:36:40;11.07;;;5.35;;
35110;SDS011;21290;50.158;8.658;2023-11-21T01:39:07;8.20;;;6.63;;
35110;SDS011;21290;50.158;8.658;2023-11-21T01:44:03;13.82;;;7.20;;
35110;SDS011;21290;50.158;8.658;2023-11-21T01:46:33;11.73;;;7.25;;
35110;SDS011;21290;50.158;8.658;2023-11-21T01:49:01;15.80;;;8.00;;
35110;SDS011;21290;50.158;8.658;2023-11-21T01:51:27;14.38;;;7.82;;
35110;SDS011;21290;50.158;8.658;2023-11-21T01:53:54;14.00;;;7.70;;
35110;SDS011;21290;50.158;8.658;2023-11-21T01:56:21;15.65;;;8.38;;
35110;SDS011;21290;50.158;8.658;2023-11-21T01:58:48;14.55;;;8.50;;
35110;SDS011;21290;50.158;8.658;2023-11-21T02:01:15;14.00;;;8.25;;
35110;SDS011;21290;50.158;8.658;2023-11-21T02:03:41;15.57;;;8.60;;
35110;SDS011;21290;50.158;8.658;2023-11-21T02:06:08;15.57;;;8.48;;
35110;SDS011;21290;50.158;8.658;2023-11-21T02:08:35;10.68;;;7.75;;
35110;SDS011;21290;50.158;8.658;2023-11-21T02:11:04;10.77;;;7.47;;
35110;SDS011;21290;50.158;8.658;2023-11-21T02:13:31;13.60;;;8.20;;
35110;SDS011;21290;50.158;8.658;2023-11-21T02:15:59;14.35;;;8.68;;
35110;SDS011;21290;50.158;8.658;2023-11-21T02:18:26;13.48;;;9.23;;
35110;SDS011;21290;50.158;8.658;2023-11-21T02:20:55;14.00;;;8.00;;
35110;SDS011;21290;50.158;8.658;2023-11-21T02:23:22;13.65;;;8.77;;
35110;SDS011;21290;50.158;8.658;2023-11-21T02:25:49;15.98;;;9.43;;
35110;SDS011;21290;50.158;8.658;2023-11-21T02:28:16;12.55;;;8.82;;
35110;SDS011;21290;50.158;8.658;2023-11-21T02:30:52;13.25;;;8.55;;
35110;SDS011;21290;50.158;8.658;2023-11-21T02:33:22;13.25;;;7.75;;
35110;SDS011;21290;50.158;8.658;2023-11-21T02:35:49;10.20;;;7.30;;
35110;SDS011;21290;50.158;8.658;2023-11-21T02:38:21;9.13;;;6.18;;
35110;SDS011;21290;50.158;8.658;2023-11-21T02:40:47;10.88;;;6.75;;
35110;SDS011;21290;50.158;8.658;2023-11-21T02:43:15;8.10;;;5.85;;
35110;SDS011;21290;50.158;8.658;2023-11-21T02:45:42;12.65;;;6.30;;
35110;SDS011;21290;50.158;8.658;2023-11-21T02:48:09;8.63;;;5.85;;
35110;SDS011;21290;50.158;8.658;2023-11-21T02:50:36;7.55;;;5.28;;
35110;SDS011;21290;50.158;8.658;2023-11-21T02:53:03;10.27;;;5.72;;
35110;SDS011;21290;50.158;8.658;2023-11-21T02:55:32;10.77;;;6.32;;
35110;SDS011;21290;50.158;8.658;2023-11-21T02:58:02;8.52;;;6.65;;
35110;SDS011;21290;50.158;8.658;2023-11-21T03:00:29;11.10;;;7.10;;
35110;SDS011;21290;50.158;8.658;2023-11-21T03:02:56;11.88;;;7.15;;
35110;SDS011;21290;50.158;8.658;2023-11-21T03:05:23;14.23;;;8.27;;
35110;SDS011;21290;50.158;8.658;2023-11-21T03:07:50;12.02;;;8.13;;
35110;SDS011;21290;50.158;8.658;2023-11-21T03:10:17;16.80;;;8.07;;
35110;SDS011;21290;50.158;8.658;2023-11-21T03:12:44;13.82;;;7.95;;
35110;SDS011;21290;50.158;8.658;2023-11-21T03:15:10;12.27;;;8.27;;
35110;SDS011;21290;50.158;8.658;2023-11-21T03:17:37;12.18;;;8.35;;
35110;SDS011;21290;50.158;8.658;2023-11-21T03:20:04;14.25;;;9.32;;
35110;SDS011;21290;50.158;8.658;2023-11-21T03:22:31;13.25;;;8.70;;
35110;SDS011;21290;50.158;8.658;2023-11-21T03:24:59;16.80;;;9.63;;
35110;SDS011;21290;50.158;8.658;2023-11-21T03:27:26;17.20;;;9.45;;
35110;SDS011;21290;50.158;8.658;2023-11-21T03:29:52;18.05;;;10.32;;
35110;SDS011;21290;50.158;8.658;2023-11-21T03:32:20;16.88;;;9.90;;
35110;SDS011;21290;50.158;8.658;2023-11-21T03:34:54;15.95;;;10.27;;
35110;SDS011;21290;50.158;8.658;2023-11-21T03:37:22;16.40;;;10.07;;
35110;SDS011;21290;50.158;8.658;2023-11-21T03:39:49;15.52;;;9.20;;
35110;SDS011;21290;50.158;8.658;2023-11-21T03:42:15;16.15;;;9.13;;
35110;SDS011;21290;50.158;8.658;2023-11-21T03:44:42;20.08;;;9.45;;
35110;SDS011;21290;50.158;8.658;2023-11-21T03:47:09;11.80;;;8.23;;
35110;SDS011;21290;50.158;8.658;2023-11-21T03:49:35;16.42;;;8.75;;
35110;SDS011;21290;50.158;8.658;2023-11-21T03:52:02;12.13;;;7.97;;
35110;SDS011;21290;50.158;8.658;2023-11-21T03:54:29;11.90;;;7.85;;
35110;SDS011;21290;50.158;8.658;2023-11-21T03:56:56;13.90;;;8.05;;
35110;SDS011;21290;50.158;8.658;2023-11-21T03:59:22;13.48;;;8.43;;
35110;SDS011;21290;50.158;8.658;2023-11-21T04:01:50;16.17;;;8.23;;
35110;SDS011;21290;50.158;8.658;2023-11-21T04:04:17;14.05;;;7.65;;
35110;SDS011;21290;50.158;8.658;2023-11-21T04:06:44;13.02;;;7.78;;
35110;SDS011;21290;50.158;8.658;2023-11-21T04:09:11;15.45;;;8.23;;
35110;SDS011;21290;50.158;8.658;2023-11-21T04:11:38;14.60;;;8.73;;
35110;SDS011;21290;50.158;8.658;2023-11-21T04:14:05;13.30;;;8.13;;
35110;SDS011;21290;50.158;8.658;2023-11-21T04:16:32;12.65;;;8.30;;
35110;SDS011;21290;50.158;8.658;2023-11-21T04:19:00;14.45;;;8.93;;
35110;SDS011;21290;50.158;8.658;2023-11-21T04:21:27;15.07;;;9.70;;
35110;SDS011;21290;50.158;8.658;2023-11-21T04:23:54;12.65;;;8.77;;
35110;SDS011;21290;50.158;8.658;2023-11-21T04:26:21;17.67;;;8.38;;
35110;SDS011;21290;50.158;8.658;2023-11-21T04:28:48;14.10;;;8.35;;
35110;SDS011;21290;50.158;8.658;2023-11-21T04:31:15;13.13;;;8.68;;
35110;SDS011;21290;50.158;8.658;2023-11-21T04:33:41;17.05;;;9.93;;
35110;SDS011;21290;50.158;8.658;2023-11-21T04:36:08;14.60;;;9.10;;
35110;SDS011;21290;50.158;8.658;2023-11-21T04:38:35;12.70;;;8.93;;
35110;SDS011;21290;50.158;8.658;2023-11-21T04:41:02;13.02;;;8.68;;
35110;SDS011;21290;50.158;8.658;2023-11-21T04:43:30;13.25;;;8.68;;
35110;SDS011;21290;50.158;8.658;2023-11-21T04:45:56;15.02;;;8.75;;
35110;SDS011;21290;50.158;8.658;2023-11-21T04:48:23;14.65;;;9.75;;
35110;SDS011;21290;50.158;8.658;2023-11-21T04:50:50;18.60;;;10.00;;
35110;SDS011;21290;50.158;8.658;2023-11-21T04:53:18;18.52;;;11.30;;
35110;SDS011;21290;50.158;8.658;2023-11-21T04:55:45;21.15;;;11.65;;
35110;SDS011;21290;50.158;8.658;2023-11-21T04:58:12;23.30;;;12.50;;
35110;SDS011;21290;50.158;8.658;2023-11-21T05:00:39;26.60;;;14.02;;
35110;SDS011;21290;50.158;8.658;2023-11-21T05:03:06;26.42;;;15.18;;
35110;SDS011;21290;50.158;8.658;2023-11-21T05:05:33;28.25;;;14.55;;
35110;SDS011;21290;50.158;8.658;2023-11-21T05:08:00;29.52;;;14.23;;
35110;SDS011;21290;50.158;8.658;2023-11-21T05:10:29;33.15;;;16.85;;
35110;SDS011;21290;50.158;8.658;2023-11-21T05:12:56;33.92;;;16.30;;
35110;SDS011;21290;50.158;8.658;2023-11-21T05:15:24;29.70;;;15.80;;
35110;SDS011;21290;50.158;8.658;2023-11-21T05:17:51;29.73;;;16.00;;
35110;SDS011;21290;50.158;8.658;2023-11-21T05:20:18;28.92;;;16.30;;
35110;SDS011;21290;50.158;8.658;2023-11-21T05:22:50;32.78;;;17.27;;
35110;SDS011;21290;50.158;8.658;2023-11-21T05:25:17;30.45;;;16.85;;
35110;SDS011;21290;50.158;8.658;2023-11-21T05:27:47;30.67;;;16.20;;
35110;SDS011;21290;50.158;8.658;2023-11-21T05:30:14;31.25;;;16.95;;
35110;SDS011;21290;50.158;8.658;2023-11-21T05:32:42;36.10;;;17.33;;
35110;SDS011;21290;50.158;8.658;2023-11-21T05:35:09;35.63;;;16.85;;
35110;SDS011;21290;50.158;8.658;2023-11-21T05:37:40;31.92;;;16.00;;
35110;SDS011;21290;50.158;8.658;2023-11-21T05:40:07;32.50;;;17.25;;
35110;SDS011;21290;50.158;8.658;2023-11-21T05:42:35;27.77;;;15.60;;
35110;SDS011;21290;50.158;8.658;2023-11-21T05:45:05;31.17;;;16.77;;
35110;SDS011;21290;50.158;8.658;2023-11-21T05:47:45;30.88;;;15.57;;
35110;SDS011;21290;50.158;8.658;2023-11-21T05:50:14;28.42;;;15.38;;
35110;SDS011;21290;50.158;8.658;2023-11-21T05:52:42;32.08;;;14.90;;
35110;SDS011;21290;50.158;8.658;2023-11-21T05:55:11;24.90;;;13.35;;
35110;SDS011;21290;50.158;8.658;2023-11-21T05:57:38;22.55;;;12.68;;
35110;SDS011;21290;50.158;8.658;2023-11-21T06:00:05;21.88;;;11.70;;
35110;SDS011;21290;50.158;8.658;2023-11-21T06:02:38;25.63;;;12.23;;
35110;SDS011;21290;50.158;8.658;2023-11-21T06:05:09;23.58;;;11.50;;
35110;SDS011;21290;50.158;8.658;2023-11-21T06:07:36;19.50;;;11.10;;
35110;SDS011;21290;50.158;8.658;2023-11-21T06:10:04;18.00;;;9.43;;
35110;SDS011;21290;50.158;8.658;2023-11-21T06:12:33;15.82;;;8.50;;
35110;SDS011;21290;50.158;8.658;2023-11-21T06:15:02;17.65;;;8.60;;
35110;SDS011;21290;50.158;8.658;2023-11-21T06:17:31;12.30;;;7.45;;
35110;SDS011;21290;50.158;8.658;2023-11-21T06:19:58;14.85;;;7.28;;
35110;SDS011;21290;50.158;8.658;2023-11-21T06:22:24;11.73;;;6.57;;
35110;SDS011;21290;50.158;8.658;2023-11-21T06:24:51;9.02;;;5.43;;
35110;SDS011;21290;50.158;8.658;2023-11-21T06:27:18;8.18;;;4.85;;
35110;SDS011;21290;50.158;8.658;2023-11-21T06:29:45;5.95;;;4.22;;
35110;SDS011;21290;50.158;8.658;2023-11-21T06:32:12;7.45;;;4.93;;
35110;SDS011;21290;50.158;8.658;2023-11-21T06:34:39;7.57;;;4.68;;
35110;SDS011;21290;50.158;8.658;2023-11-21T06:37:05;6.15;;;4.82;;
35110;SDS011;21290;50.158;8.658;2023-11-21T06:39:32;9.48;;;5.20;;
35110;SDS011;21290;50.158;8.658;2023-11-21T06:41:59;7.50;;;5.35;;
35110;SDS011;21290;50.158;8.658;2023-11-21T06:44:26;7.18;;;5.45;;
35110;SDS011;21290;50.158;8.658;2023-11-21T06:46:52;8.75;;;5.72;;
35110;SDS011;21290;50.158;8.658;2023-11-21T06:49:19;8.93;;;4.95;;
35110;SDS011;21290;50.158;8.658;2023-11-21T06:51:46;8.70;;;5.70;;
35110;SDS011;21290;50.158;8.658;2023-11-21T06:54:13;8.85;;;5.63;;
35110;SDS011;21290;50.158;8.658;2023-11-21T06:56:40;10.30;;;5.80;;
35110;SDS011;21290;50.158;8.658;2023-11-21T06:59:07;8.93;;;6.15;;
35110;SDS011;21290;50.158;8.658;2023-11-21T07:01:35;13.80;;;5.40;;
35110;SDS011;21290;50.158;8.658;2023-11-21T07:04:05;8.50;;;5.80;;
35110;SDS011;21290;50.158;8.658;2023-11-21T07:06:33;10.50;;;5.72;;
35110;SDS011;21290;50.158;8.658;2023-11-21T07:09:00;13.63;;;6.70;;
35110;SDS011;21290;50.158;8.658;2023-11-21T07:11:27;13.68;;;6.68;;
35110;SDS011;21290;50.158;8.658;2023-11-21T07:13:54;11.88;;;5.85;;
35110;SDS011;21290;50.158;8.658;2023-11-21T07:16:21;12.32;;;6.35;;
35110;SDS011;21290;50.158;8.658;2023-11-21T07:18:51;18.23;;;7.03;;
35110;SDS011;21290;50.158;8.658;2023-11-21T07:21:18;13.25;;;7.68;;
35110;SDS011;21290;50.158;8.658;2023-11-21T07:23:45;10.75;;;7.40;;
35110;SDS011;21290;50.158;8.658;2023-11-21T07:26:12;12.20;;;7.00;;
35110;SDS011;21290;50.158;8.658;2023-11-21T07:28:39;10.02;;;6.95;;
35110;SDS011;21290;50.158;8.658;2023-11-21T07:31:08;12.15;;;7.75;;
35110;SDS011;21290;50.158;8.658;2023-11-21T07:33:40;12.77;;;8.48;;
35110;SDS011;21290;50.158;8.658;2023-11-21T07:36:07;12.20;;;8.05;;
35110;SDS011;21290;50.158;8.658;2023-11-21T07:38:37;14.68;;;7.85;;
35110;SDS011;21290;50.158;8.658;2023-11-21T07:41:05;13.07;;;8.13;;
35110;SDS011;21290;50.158;8.658;2023-11-21T07:43:55;13.48;;;8.95;;
35110;SDS011;21290;50.158;8.658;2023-11-21T07:46:22;14.77;;;8.07;;
35110;SDS011;21290;50.158;8.658;2023-11-21T07:48:50;12.52;;;8.57;;
35110;SDS011;21290;50.158;8.658;2023-11-21T07:51:18;14.02;;;8.48;;
35110;SDS011;21290;50.158;8.658;2023-11-21T07:53:45;12.00;;;8.50;;
35110;SDS011;21290;50.158;8.658;2023-11-21T07:56:12;15.68;;;9.50;;
35110;SDS011;21290;50.158;8.658;2023-11-21T07:58:39;13.15;;;9.65;;
35110;SDS011;21290;50.158;8.658;2023-11-21T08:01:06;18.30;;;8.98;;
35110;SDS011;21290;50.158;8.658;2023-11-21T08:03:34;13.73;;;8.88;;
35110;SDS011;21290;50.158;8.658;2023-11-21T08:06:01;15.80;;;10.68;;
35110;SDS011;21290;50.158;8.658;2023-11-21T08:08:29;15.75;;;10.30;;
35110;SDS011;21290;50.158;8.658;2023-11-21T08:10:56;13.07;;;8.57;;
35110;SDS011;21290;50.158;8.658;2023-11-21T08:13:23;13.00;;;8.80;;
35110;SDS011;21290;50.158;8.658;2023-11-21T08:20:37;11.00;;;7.88;;
35110;SDS011;21290;50.158;8.658;2023-11-21T08:23:06;9.87;;;7.47;;
35110;SDS011;21290;50.158;8.658;2023-11-21T08:25:33;12.73;;;8.35;;
35110;SDS011;21290;50.158;8.658;2023-11-21T08:28:10;14.40;;;7.03;;
35110;SDS011;21290;50.158;8.658;2023-11-21T08:30:37;14.13;;;7.25;;
35110;SDS011;21290;50.158;8.658;2023-11-21T08:33:07;14.48;;;7.55;;
35110;SDS011;21290;50.158;8.658;2023-11-21T08:35:50;11.30;;;7.05;;
35110;SDS011;21290;50.158;8.658;2023-11-21T08:38:17;12.05;;;6.90;;
35110;SDS011;21290;50.158;8.658;2023-11-21T08:40:44;10.60;;;6.57;;
35110;SDS011;21290;50.158;8.658;2023-11-21T08:43:10;11.20;;;7.18;;
35110;SDS011;21290;50.158;8.658;2023-11-21T08:45:41;9.15;;;6.78;;
35110;SDS011;21290;50.158;8.658;2023-11-21T08:48:12;11.18;;;6.57;;
35110;SDS011;21290;50.158;8.658;2023-11-21T08:50:40;12.77;;;6.40;;
35110;SDS011;21290;50.158;8.658;2023-11-21T08:53:07;13.73;;;6.10;;
35110;SDS011;21290;50.158;8.658;2023-11-21T08:55:34;13.38;;;5.82;;
35110;SDS011;21290;50.158;8.658;2023-11-21T08:58:03;10.05;;;6.38;;
35110;SDS011;21290;50.158;8.658;2023-11-21T09:00:32;11.23;;;5.80;;
35110;SDS011;21290;50.158;8.658;2023-11-21T09:03:00;7.20;;;4.57;;
35110;SDS011;21290;50.158;8.658;2023-11-21T09:07:56;10.45;;;5.53;;
35110;SDS011;21290;50.158;8.658;2023-11-21T09:10:22;7.82;;;4.65;;
35110;SDS011;21290;50.158;8.658;2023-11-21T09:12:57;7.05;;;4.40;;
35110;SDS011;21290;50.158;8.658;2023-11-21T09:15:25;6.90;;;4.40;;
35110;SDS011;21290;50.158;8.658;2023-11-21T09:17:51;12.77;;;5.10;;
35110;SDS011;21290;50.158;8.658;2023-11-21T09:20:18;6.68;;;3.95;;
35110;SDS011;21290;50.158;8.658;2023-11-21T09:22:49;8.95;;;4.90;;
35110;SDS011;21290;50.158;8.658;2023-11-21T09:25:15;10.82;;;4.57;;
35110;SDS011;21290;50.158;8.658;2023-11-21T09:27:42;5.78;;;3.60;;
35110;SDS011;21290;50.158;8.658;2023-11-21T09:30:09;10.23;;;4.10;;
35110;SDS011;21290;50.158;8.658;2023-11-21T09:32:40;9.60;;;4.25;;
35110;SDS011;21290;50.158;8.658;2023-11-21T09:35:07;8.90;;;4.45;;
35110;SDS011;21290;50.158;8.658;2023-11-21T09:37:34;8.40;;;3.83;;
35110;SDS011;21290;50.158;8.658;2023-11-21T09:40:04;8.27;;;4.20;;
35110;SDS011;21290;50.158;8.658;2023-11-21T09:42:39;8.73;;;4.38;;
35110;SDS011;21290;50.158;8.658;2023-11-21T09:45:28;9.40;;;3.80;;
35110;SDS011;21290;50.158;8.658;2023-11-21T09:48:00;6.45;;;3.40;;
35110;SDS011;21290;50.158;8.658;2023-11-21T09:50:29;5.55;;;2.92;;
35110;SDS011;21290;50.158;8.658;2023-11-21T09:55:44;5.55;;;3.00;;
35110;SDS011;21290;50.158;8.658;2023-11-21T09:58:13;7.63;;;2.92;;
35110;SDS011;21290;50.158;8.658;2023-11-21T10:00:52;7.05;;;2.70;;
35110;SDS011;21290;50.158;8.658;2023-11-21T10:05:48;6.07;;;2.72;;
35110;SDS011;21290;50.158;8.658;2023-11-21T10:08:17;4.82;;;2.38;;
35110;SDS011;21290;50.158;8.658;2023-11-21T10:10:46;4.93;;;2.30;;
35110;SDS011;21290;50.158;8.658;2023-11-21T10:13:20;3.63;;;2.10;;
35110;SDS011;21290;50.158;8.658;2023-11-21T10:15:53;7.78;;;2.72;;
35110;SDS011;21290;50.158;8.658;2023-11-21T10:18:20;5.45;;;2.70;;
35110;SDS011;21290;50.158;8.658;2023-11-21T10:20:51;6.75;;;2.83;;
35110;SDS011;21290;50.158;8.658;2023-11-21T10:23:31;7.45;;;2.90;;
35110;SDS011;21290;50.158;8.658;2023-11-21T10:26:01;5.38;;;2.88;;
35110;SDS011;21290;50.158;8.658;2023-11-21T10:28:57;5.35;;;3.00;;
35110;SDS011;21290;50.158;8.658;2023-11-21T10:31:30;5.93;;;2.80;;
35110;SDS011;21290;50.158;8.658;2023-11-21T10:34:17;5.18;;;2.90;;
35110;SDS011;21290;50.158;8.658;2023-11-21T10:36:45;8.05;;;2.88;;
35110;SDS011;21290;50.158;8.658;2023-11-21T10:39:21;5.20;;;2.40;;
35110;SDS011;21290;50.158;8.658;2023-11-21T10:41:53;6.23;;;3.10;;
35110;SDS011;21290;50.158;8.658;2023-11-21T10:44:21;7.82;;;3.42;;
35110;SDS011;21290;50.158;8.658;2023-11-21T10:46:51;6.18;;;3.35;;
35110;SDS011;21290;50.158;8.658;2023-11-21T10:49:22;5.72;;;3.20;;
35110;SDS011;21290;50.158;8.658;2023-11-21T10:51:51;8.98;;;3.53;;
35110;SDS011;21290;50.158;8.658;2023-11-21T10:54:23;8.32;;;3.67;;
35110;SDS011;21290;50.158;8.658;2023-11-21T10:56:57;7.18;;;3.45;;
35110;SDS011;21290;50.158;8.658;2023-11-21T10:59:29;5.75;;;3.25;;
35110;SDS011;21290;50.158;8.658;2023-11-21T11:02:09;6.40;;;3.33;;
35110;SDS011;21290;50.158;8.658;2023-11-21T11:05:20;7.53;;;3.75;;
35110;SDS011;21290;50.158;8.658;2023-11-21T11:07:56;6.18;;;3.30;;
35110;SDS011;21290;50.158;8.658;2023-11-21T11:10:31;8.35;;;3.33;;
35110;SDS011;21290;50.158;8.658;2023-11-21T11:12:58;6.20;;;2.97;;
35110;SDS011;21290;50.158;8.658;2023-11-21T11:15:26;7.03;;;3.03;;
35110;SDS011;21290;50.158;8.658;2023-11-21T11:17:54;8.63;;;3.15;;
35110;SDS011;21290;50.158;8.658;2023-11-21T11:20:32;4.43;;;2.75;;
35110;SDS011;21290;50.158;8.658;2023-11-21T11:29:00;8.73;;;3.53;;
35110;SDS011;21290;50.158;8.658;2023-11-21T11:31:40;7.68;;;4.35;;
35110;SDS011;21290;50.158;8.658;2023-11-21T11:34:29;8.00;;;4.18;;
35110;SDS011;21290;50.158;8.658;2023-11-21T11:37:02;7.82;;;4.15;;
35110;SDS011;21290;50.158;8.658;2023-11-21T11:39:43;7.97;;;4.20;;
35110;SDS011;21290;50.158;8.658;2023-11-21T11:42:13;6.30;;;4.20;;
35110;SDS011;21290;50.158;8.658;2023-11-21T11:47:31;7.38;;;4.30;;
35110;SDS011;21290;50.158;8.658;2023-11-21T11:52:49;8.65;;;4.65;;
35110;SDS011;21290;50.158;8.658;2023-11-21T11:55:19;9.65;;;4.57;;
35110;SDS011;21290;50.158;8.658;2023-11-21T11:57:48;8.98;;;4.57;;
35110;SDS011;21290;50.158;8.658;2023-11-21T12:00:22;9.52;;;4.60;;
35110;SDS011;21290;50.158;8.658;2023-11-21T12:02:58;8.38;;;4.22;;
35110;SDS011;21290;50.158;8.658;2023-11-21T12:05:30;7.97;;;4.55;;
35110;SDS011;21290;50.158;8.658;2023-11-21T12:08:10;15.70;;;5.28;;
35110;SDS011;21290;50.158;8.658;2023-11-21T12:10:38;9.10;;;4.18;;
35110;SDS011;21290;50.158;8.658;2023-11-21T12:13:09;11.40;;;4.38;;
35110;SDS011;21290;50.158;8.658;2023-11-21T12:15:38;8.20;;;4.00;;
35110;SDS011;21290;50.158;8.658;2023-11-21T12:18:07;7.70;;;4.25;;
35110;SDS011;21290;50.158;8.658;2023-11-21T12:20:34;7.95;;;4.30;;
35110;SDS011;21290;50.158;8.658;2023-11-21T12:23:05;9.30;;;4.25;;
35110;SDS011;21290;50.158;8.658;2023-11-21T12:25:32;9.77;;;4.53;;
35110;SDS011;21290;50.158;8.658;2023-11-21T12:28:00;12.52;;;4.35;;
35110;SDS011;21290;50.158;8.658;2023-11-21T12:30:29;7.88;;;4.75;;
35110;SDS011;21290;50.158;8.658;2023-11-21T12:32:58;8.50;;;4.43;;
35110;SDS011;21290;50.158;8.658;2023-11-21T12:35:30;11.98;;;4.10;;
35110;SDS011;21290;50.158;8.658;2023-11-21T12:38:00;7.80;;;4.78;;
35110;SDS011;21290;50.158;8.658;2023-11-21T12:40:31;10.07;;;5.07;;
35110;SDS011;21290;50.158;8.658;2023-11-21T12:42:59;7.15;;;4.15;;
35110;SDS011;21290;50.158;8.658;2023-11-21T12:45:28;7.00;;;4.50;;
35110;SDS011;21290;50.158;8.658;2023-11-21T12:50:30;8.98;;;4.07;;
35110;SDS011;21290;50.158;8.658;2023-11-21T12:53:05;5.55;;;4.10;;
35110;SDS011;21290;50.158;8.658;2023-11-21T12:55:35;7.82;;;4.35;;
35110;SDS011;21290;50.158;8.658;2023-11-21T12:58:07;11.55;;;4.47;;
35110;SDS011;21290;50.158;8.658;2023-11-21T13:03:09;9.32;;;4.45;;
35110;SDS011;21290;50.158;8.658;2023-11-21T13:05:40;11.32;;;4.95;;
35110;SDS011;21290;50.158;8.658;2023-11-21T13:08:13;15.73;;;4.45;;
35110;SDS011;21290;50.158;8.658;2023-11-21T13:10:43;10.88;;;4.90;;
35110;SDS011;21290;50.158;8.658;2023-11-21T13:13:13;13.93;;;5.00;;
35110;SDS011;21290;50.158;8.658;2023-11-21T13:15:50;8.98;;;4.50;;
35110;SDS011;21290;50.158;8.658;2023-11-21T13:18:18;7.55;;;4.35;;
35110;SDS011;21290;50.158;8.658;2023-11-21T13:23:15;6.03;;;3.92;;
35110;SDS011;21290;50.158;8.658;2023-11-21T13:25:42;8.05;;;4.30;;
35110;SDS011;21290;50.158;8.658;2023-11-21T13:28:19;7.85;;;4.75;;
35110;SDS011;21290;50.158;8.658;2023-11-21T13:30:48;10.95;;;4.80;;
35110;SDS011;21290;50.158;8.658;2023-11-21T13:33:18;6.22;;;4.22;;
35110;SDS011;21290;50.158;8.658;2023-11-21T13:35:48;5.72;;;4.28;;
35110;SDS011;21290;50.158;8.658;2023-11-21T13:38:17;7.28;;;3.88;;
35110;SDS011;21290;50.158;8.658;2023-11-21T13:40:49;8.13;;;4.13;;
35110;SDS011;21290;50.158;8.658;2023-11-21T13:43:21;8.00;;;4.15;;
35110;SDS011;21290;50.158;8.658;2023-11-21T13:45:51;10.52;;;4.40;;
35110;SDS011;21290;50.158;8.658;2023-11-21T13:48:29;12.18;;;5.00;;
35110;SDS011;21290;50.158;8.658;2023-11-21T13:51:07;8.43;;;4.43;;
35110;SDS011;21290;50.158;8.658;2023-11-21T13:53:47;9.98;;;4.45;;
35110;SDS011;21290;50.158;8.658;2023-11-21T13:56:16;11.63;;;5.20;;
35110;SDS011;21290;50.158;8.658;2023-11-21T13:58:48;10.88;;;5.30;;
35110;SDS011;21290;50.158;8.658;2023-11-21T14:01:20;11.13;;;5.00;;
35110;SDS011;21290;50.158;8.658;2023-11-21T14:03:57;6.63;;;4.55;;
35110;SDS011;21290;50.158;8.658;2023-11-21T14:06:46;7.43;;;4.13;;
35110;SDS011;21290;50.158;8.658;2023-11-21T14:11:54;12.32;;;4.80;;
35110;SDS011;21290;50.158;8.658;2023-11-21T14:14:23;11.27;;;4.97;;
35110;SDS011;21290;50.158;8.658;2023-11-21T14:16:54;8.27;;;4.78;;
35110;SDS011;21290;50.158;8.658;2023-11-21T14:19:25;7.60;;;5.07;;
35110;SDS011;21290;50.158;8.658;2023-11-21T14:21:57;11.43;;;5.45;;
35110;SDS011;21290;50.158;8.658;2023-11-21T14:24:24;10.82;;;5.28;;
35110;SDS011;21290;50.158;8.658;2023-11-21T14:26:51;11.30;;;5.72;;
35110;SDS011;21290;50.158;8.658;2023-11-21T14:29:18;11.23;;;6.10;;
35110;SDS011;21290;50.158;8.658;2023-11-21T14:31:46;10.32;;;5.63;;
35110;SDS011;21290;50.158;8.658;2023-11-21T14:34:13;9.98;;;5.63;;
35110;SDS011;21290;50.158;8.658;2023-11-21T14:36:45;13.75;;;6.35;;
35110;SDS011;21290;50.158;8.658;2023-11-21T14:39:12;14.38;;;7.20;;
35110;SDS011;21290;50.158;8.658;2023-11-21T14:41:54;11.70;;;6.18;;
35110;SDS011;21290;50.158;8.658;2023-11-21T14:44:22;9.48;;;5.68;;
35110;SDS011;21290;50.158;8.658;2023-11-21T14:46:59;17.52;;;6.80;;
35110;SDS011;21290;50.158;8.658;2023-11-21T14:49:26;9.52;;;6.28;;
35110;SDS011;21290;50.158;8.658;2023-11-21T14:52:01;14.55;;;6.22;;
35110;SDS011;21290;50.158;8.658;2023-11-21T14:54:30;9.18;;;5.57;;
35110;SDS011;21290;50.158;8.658;2023-11-21T14:57:07;15.05;;;6.75;;
35110;SDS011;21290;50.158;8.658;2023-11-21T14:59:43;11.48;;;6.47;;
35110;SDS011;21290;50.158;8.658;2023-11-21T15:02:13;12.93;;;6.38;;
35110;SDS011;21290;50.158;8.658;2023-11-21T15:04:42;14.30;;;6.43;;
35110;SDS011;21290;50.158;8.658;2023-11-21T15:07:09;11.65;;;5.95;;
35110;SDS011;21290;50.158;8.658;2023-11-21T15:09:39;15.65;;;6.68;;
35110;SDS011;21290;50.158;8.658;2023-11-21T15:12:11;13.43;;;6.70;;
35110;SDS011;21290;50.158;8.658;2023-11-21T15:17:16;12.82;;;6.03;;
35110;SDS011;21290;50.158;8.658;2023-11-21T15:19:50;9.45;;;5.63;;
35110;SDS011;21290;50.158;8.658;2023-11-21T15:22:17;10.63;;;5.68;;
35110;SDS011;21290;50.158;8.658;2023-11-21T15:24:44;14.57;;;6.47;;
35110;SDS011;21290;50.158;8.658;2023-11-21T15:27:13;8.15;;;5.50;;
35110;SDS011;21290;50.158;8.658;2023-11-21T15:29:41;8.48;;;5.47;;